createdAt,value
2018-11-13T00:00:15.854Z,1000.5
2018-11-13T00:03:15.310Z,1000.6
2018-11-13T00:06:15.700Z,1000.6
2018-11-13T00:09:15.675Z,1000.4
2018-11-13T00:12:15.618Z,1000.4
2018-11-13T00:15:15.647Z,1000.4
2018-11-13T00:18:15.675Z,1000.3
2018-11-13T00:21:15.854Z,1000.4
2018-11-13T00:24:15.816Z,1000.4
2018-11-13T00:27:15.894Z,1000.5
2018-11-13T00:30:15.277Z,1000.5
2018-11-13T00:33:15.253Z,1000.5
2018-11-13T00:36:15.266Z,1000.6
2018-11-13T00:39:15.448Z,1000.7
2018-11-13T00:42:15.494Z,1000.8
2018-11-13T00:45:15.594Z,1000.8
2018-11-13T00:48:15.039Z,1000.8
2018-11-13T00:51:15.793Z,1000.9
2018-11-13T00:54:15.020Z,1000.9
2018-11-13T00:57:16.139Z,1001.1
2018-11-13T01:00:15.293Z,1001.2
2018-11-13T01:03:15.404Z,1001.4
2018-11-13T01:06:15.417Z,1001.3
2018-11-13T01:09:15.241Z,1001.2
2018-11-13T01:12:15.454Z,1001.2
2018-11-13T01:15:15.187Z,1001.2
2018-11-13T01:18:15.330Z,1001.3
2018-11-13T01:21:15.345Z,1001.3
2018-11-13T01:24:15.553Z,1001.2
2018-11-13T01:27:15.448Z,1001.3
2018-11-13T01:30:15.579Z,1001.3
2018-11-13T01:33:15.676Z,1001.4
2018-11-13T01:36:15.759Z,1001.2
2018-11-13T01:39:15.716Z,1001.2
2018-11-13T01:42:15.600Z,1001.3
2018-11-13T01:45:15.607Z,1001.2
2018-11-13T01:48:15.564Z,1001.2
2018-11-13T01:51:15.536Z,1001.1
2018-11-13T01:54:15.503Z,1001.1
2018-11-13T01:57:15.545Z,1001.2
2018-11-13T02:00:15.788Z,1001.4
2018-11-13T02:03:15.780Z,1001.5
2018-11-13T02:06:15.912Z,1001.5
2018-11-13T02:09:15.833Z,1001.6
2018-11-13T02:12:15.898Z,1001.7
2018-11-13T02:15:14.985Z,1001.8
2018-11-13T02:18:15.055Z,1001.8
2018-11-13T02:21:15.208Z,1001.8
2018-11-13T02:24:15.395Z,1002.0
2018-11-13T02:27:15.255Z,1001.9
2018-11-13T02:30:15.308Z,1002.0
2018-11-13T02:33:15.267Z,1002.1
2018-11-13T02:36:15.510Z,1001.9
2018-11-13T02:39:15.551Z,1001.8
2018-11-13T02:42:15.586Z,1001.8
2018-11-13T02:45:15.569Z,1001.8
2018-11-13T02:48:15.846Z,1001.9
2018-11-13T02:51:15.704Z,1001.9
2018-11-13T02:54:15.600Z,1002.0
2018-11-13T02:57:15.700Z,1002.1
2018-11-13T03:00:15.816Z,1002.1
2018-11-13T03:03:15.924Z,1002.1
2018-11-13T03:06:14.958Z,1002.1
2018-11-13T03:09:15.060Z,1002.1
2018-11-13T03:12:15.257Z,1002.2
2018-11-13T03:15:15.283Z,1002.2
2018-11-13T03:18:15.475Z,1002.2
2018-11-13T03:21:15.407Z,1002.2
2018-11-13T03:24:15.520Z,1002.1
2018-11-13T03:27:15.859Z,1002.2
2018-11-13T03:30:15.909Z,1002.1
2018-11-13T03:33:15.235Z,1002.1
2018-11-13T03:36:15.161Z,1002.0
2018-11-13T03:39:15.252Z,1002.1
2018-11-13T03:42:15.406Z,1002.1
2018-11-13T03:45:15.460Z,1002.1
2018-11-13T03:48:15.576Z,1002.3
2018-11-13T03:51:15.543Z,1002.4
2018-11-13T03:54:15.558Z,1002.4
2018-11-13T03:57:15.515Z,1002.4
2018-11-13T04:00:15.846Z,1002.4
2018-11-13T04:03:15.858Z,1002.4
2018-11-13T04:06:15.931Z,1002.5
2018-11-13T04:09:15.131Z,1002.5
2018-11-13T04:12:15.243Z,1002.6
2018-11-13T04:15:15.289Z,1002.6
2018-11-13T04:18:15.273Z,1002.5
2018-11-13T04:21:15.395Z,1002.6
2018-11-13T04:24:15.759Z,1002.7
2018-11-13T04:27:15.833Z,1002.7
2018-11-13T04:30:15.048Z,1002.8
2018-11-13T04:33:15.366Z,1002.8
2018-11-13T04:36:15.383Z,1002.8
2018-11-13T04:39:15.744Z,1002.8
2018-11-13T04:42:15.759Z,1002.8
2018-11-13T04:45:15.607Z,1002.7
2018-11-13T04:48:15.243Z,1002.6
2018-11-13T04:51:15.269Z,1002.5
2018-11-13T04:54:15.612Z,1002.4
2018-11-13T04:57:15.739Z,1002.5
2018-11-13T05:00:15.922Z,1002.6
2018-11-13T05:03:15.892Z,1002.6
2018-11-13T05:06:16.000Z,1002.7
2018-11-13T05:09:16.022Z,1002.8
2018-11-13T05:12:15.159Z,1002.9
2018-11-13T05:15:15.497Z,1002.9
2018-11-13T05:18:15.490Z,1002.9
2018-11-13T05:21:15.461Z,1002.8
2018-11-13T05:24:15.703Z,1002.7
2018-11-13T05:27:15.693Z,1002.7
2018-11-13T05:30:15.897Z,1002.8
2018-11-13T05:33:15.009Z,1002.8
2018-11-13T05:36:15.140Z,1002.8
2018-11-13T05:39:15.017Z,1002.8
2018-11-13T05:42:15.128Z,1002.9
2018-11-13T05:45:15.367Z,1002.9
2018-11-13T05:48:15.589Z,1003.1
2018-11-13T05:51:15.725Z,1003.2
2018-11-13T05:54:15.839Z,1003.2
2018-11-13T05:57:15.990Z,1003.3
2018-11-13T06:00:15.545Z,1003.4
2018-11-13T06:03:15.838Z,1003.4
2018-11-13T06:06:15.889Z,1003.3
2018-11-13T06:09:15.917Z,1003.3
2018-11-13T06:12:15.880Z,1003.3
2018-11-13T06:15:15.962Z,1003.4
2018-11-13T06:18:15.296Z,1003.4
2018-11-13T06:21:15.441Z,1003.4
2018-11-13T06:24:15.458Z,1003.4
2018-11-13T06:27:15.462Z,1003.5
2018-11-13T06:30:15.546Z,1003.5
2018-11-13T06:33:15.239Z,1003.7
2018-11-13T06:36:15.440Z,1003.7
2018-11-13T06:39:15.519Z,1003.9
2018-11-13T06:42:15.779Z,1003.9
2018-11-13T06:45:15.165Z,1004.1
2018-11-13T06:48:15.321Z,1004.1
2018-11-13T06:51:15.773Z,1004.2
2018-11-13T06:54:15.072Z,1004.2
2018-11-13T06:57:15.167Z,1004.3
2018-11-13T07:00:15.270Z,1004.3
2018-11-13T07:03:15.517Z,1004.4
2018-11-13T07:06:15.695Z,1004.5
2018-11-13T07:09:15.614Z,1004.6
2018-11-13T07:12:15.818Z,1004.6
2018-11-13T07:15:15.820Z,1004.6
2018-11-13T07:18:15.556Z,1004.6
2018-11-13T07:21:15.078Z,1004.7
2018-11-13T07:24:15.196Z,1004.6
2018-11-13T07:27:15.685Z,1004.7
2018-11-13T07:30:15.208Z,1004.6
2018-11-13T07:33:15.372Z,1004.6
2018-11-13T07:36:15.682Z,1004.9
2018-11-13T07:39:15.894Z,1005.1
2018-11-13T07:42:15.488Z,1005.3
2018-11-13T07:45:15.135Z,1005.4
2018-11-13T07:48:15.262Z,1005.3
2018-11-13T07:51:15.656Z,1005.3
2018-11-13T07:54:15.634Z,1005.2
2018-11-13T07:57:15.912Z,1005.1
2018-11-13T08:00:15.074Z,1005.3
2018-11-13T08:03:15.550Z,1005.5
2018-11-13T08:06:15.716Z,1005.4
2018-11-13T08:09:15.272Z,1005.3
2018-11-13T08:12:15.328Z,1005.5
2018-11-13T08:15:15.491Z,1005.5
2018-11-13T08:18:15.056Z,1005.8
2018-11-13T08:21:15.823Z,1005.9
2018-11-13T08:24:15.810Z,1005.9
2018-11-13T08:27:15.040Z,1006.0
2018-11-13T08:30:15.247Z,1005.9
2018-11-13T08:33:15.336Z,1005.8
2018-11-13T08:36:15.777Z,1005.9
2018-11-13T08:39:15.816Z,1006.0
2018-11-13T08:42:15.153Z,1006.1
2018-11-13T08:45:15.276Z,1006.2
2018-11-13T08:48:15.528Z,1006.2
2018-11-13T08:51:15.609Z,1006.3
2018-11-13T08:54:15.612Z,1006.3
2018-11-13T08:57:15.831Z,1006.3
2018-11-13T09:00:15.868Z,1006.3
2018-11-13T09:03:15.061Z,1006.3
2018-11-13T09:06:15.221Z,1006.4
2018-11-13T09:09:15.528Z,1006.3
2018-11-13T09:12:15.970Z,1006.4
2018-11-13T09:15:15.870Z,1006.5
2018-11-13T09:18:15.226Z,1006.6
2018-11-13T09:21:15.297Z,1006.7
2018-11-13T09:24:15.486Z,1006.7
2018-11-13T09:27:15.677Z,1006.8
2018-11-13T09:30:16.175Z,1006.8
2018-11-13T09:33:15.144Z,1006.8
2018-11-13T09:36:15.429Z,1006.8
2018-11-13T09:39:15.554Z,1006.9
2018-11-13T09:42:15.496Z,1006.9
2018-11-13T09:45:15.700Z,1006.9
2018-11-13T09:48:15.937Z,1006.9
2018-11-13T09:51:14.944Z,1006.8
2018-11-13T09:54:15.122Z,1006.9
2018-11-13T09:57:15.243Z,1006.9
2018-11-13T10:00:15.539Z,1006.9
2018-11-13T10:03:16.654Z,1006.9
2018-11-13T10:06:15.256Z,1006.9
2018-11-13T10:09:15.340Z,1007.0
2018-11-13T10:12:15.586Z,1007.0
2018-11-13T10:15:15.721Z,1007.0
2018-11-13T10:18:15.516Z,1006.9
2018-11-13T10:21:15.112Z,1006.9
2018-11-13T10:24:15.236Z,1006.9
2018-11-13T10:27:15.447Z,1006.9
2018-11-13T10:30:15.570Z,1006.9
2018-11-13T10:33:15.849Z,1006.9
2018-11-13T10:36:15.957Z,1006.9
2018-11-13T10:39:15.350Z,1007.0
2018-11-13T10:42:15.408Z,1007.0
2018-11-13T10:45:15.530Z,1007.0
2018-11-13T10:48:15.275Z,1007.1
2018-11-13T10:51:15.530Z,1007.0
2018-11-13T10:54:15.925Z,1007.0
2018-11-13T10:57:15.176Z,1006.9
2018-11-13T11:00:15.527Z,1006.9
2018-11-13T11:03:15.680Z,1006.9
2018-11-13T11:06:16.027Z,1006.9
2018-11-13T11:09:15.149Z,1006.9
2018-11-13T11:12:15.308Z,1006.8
2018-11-13T11:15:15.642Z,1006.8
2018-11-13T11:18:15.827Z,1006.8
2018-11-13T11:21:15.144Z,1006.9
2018-11-13T11:24:15.255Z,1006.9
2018-11-13T11:27:15.558Z,1006.9
2018-11-13T11:30:15.740Z,1006.9
2018-11-13T11:33:15.884Z,1006.9
2018-11-13T11:36:15.097Z,1006.9
2018-11-13T11:39:15.134Z,1006.9
2018-11-13T11:42:15.515Z,1006.9
2018-11-13T11:45:15.811Z,1007.0
2018-11-13T11:48:15.998Z,1007.1
2018-11-13T11:51:15.020Z,1007.0
2018-11-13T11:54:15.122Z,1007.1
2018-11-13T11:57:15.241Z,1007.1
2018-11-13T12:00:15.365Z,1007.1
2018-11-13T12:03:15.077Z,1007.1
2018-11-13T12:06:15.074Z,1007.0
2018-11-13T12:09:15.286Z,1006.9
2018-11-13T12:12:15.321Z,1007.0
2018-11-13T12:15:15.757Z,1007.0
2018-11-13T12:18:15.053Z,1007.0
2018-11-13T12:21:15.459Z,1007.0
2018-11-13T12:24:15.705Z,1007.1
2018-11-13T12:27:15.685Z,1006.9
2018-11-13T12:30:15.182Z,1007.1
2018-11-13T12:33:15.863Z,1007.1
2018-11-13T12:36:14.978Z,1007.1
2018-11-13T12:39:15.120Z,1007.1
2018-11-13T12:42:15.186Z,1007.2
2018-11-13T12:45:15.404Z,1007.1
2018-11-13T12:48:15.215Z,1007.2
2018-11-13T12:51:15.530Z,1007.1
2018-11-13T12:54:15.301Z,1007.1
2018-11-13T12:57:15.388Z,1007.2
2018-11-13T13:00:15.563Z,1007.1
2018-11-13T13:03:15.618Z,1007.1
2018-11-13T13:06:15.718Z,1007.1
2018-11-13T13:09:15.837Z,1006.9
2018-11-13T13:12:15.893Z,1007.1
2018-11-13T13:15:15.302Z,1007.1
2018-11-13T13:18:15.788Z,1007.1
2018-11-13T13:21:15.910Z,1007.0
2018-11-13T13:24:15.941Z,1007.1
2018-11-13T13:27:15.141Z,1007.1
2018-11-13T13:30:15.393Z,1006.9
2018-11-13T13:33:15.409Z,1007.1
2018-11-13T13:36:15.427Z,1007.0
2018-11-13T13:39:15.654Z,1007.2
2018-11-13T13:42:15.839Z,1007.2
2018-11-13T13:45:15.223Z,1007.3
2018-11-13T13:48:15.515Z,1007.4
2018-11-13T13:51:15.640Z,1007.4
2018-11-13T13:54:15.840Z,1007.4
2018-11-13T13:57:15.578Z,1007.4
2018-11-13T14:00:16.000Z,1007.5
2018-11-13T14:03:15.944Z,1007.5
2018-11-13T14:06:15.242Z,1007.5
2018-11-13T14:09:15.676Z,1007.6
2018-11-13T14:12:15.701Z,1007.6
2018-11-13T14:15:15.870Z,1007.7
2018-11-13T14:18:15.366Z,1007.7
2018-11-13T14:21:15.404Z,1007.7
2018-11-13T14:24:15.419Z,1007.7
2018-11-13T14:27:15.616Z,1007.7
2018-11-13T14:30:15.931Z,1007.8
2018-11-13T14:33:15.714Z,1007.8
2018-11-13T14:36:15.988Z,1007.9
2018-11-13T14:39:15.082Z,1008.0
2018-11-13T14:42:15.239Z,1008.0
2018-11-13T14:45:15.478Z,1008.0
2018-11-13T14:48:15.379Z,1008.1
2018-11-13T14:51:15.513Z,1008.1
2018-11-13T14:54:15.488Z,1008.1
2018-11-13T14:57:15.686Z,1008.1
2018-11-13T15:00:15.888Z,1008.2
2018-11-13T15:03:15.904Z,1008.2
2018-11-13T15:06:15.027Z,1008.3
2018-11-13T15:09:15.272Z,1008.3
2018-11-13T15:12:15.397Z,1008.3
2018-11-13T15:15:15.884Z,1008.4
2018-11-13T15:18:15.339Z,1008.5
2018-11-13T15:21:15.431Z,1008.5
2018-11-13T15:24:15.557Z,1008.5
2018-11-13T15:27:15.762Z,1008.6
2018-11-13T15:30:15.603Z,1008.6
2018-11-13T15:33:15.596Z,1008.6
2018-11-13T15:36:15.724Z,1008.7
2018-11-13T15:39:15.203Z,1008.7
2018-11-13T15:42:15.381Z,1008.8
2018-11-13T15:45:15.614Z,1008.8
2018-11-13T15:48:15.850Z,1008.9
2018-11-13T15:51:15.176Z,1008.9
2018-11-13T15:54:15.557Z,1009.0
2018-11-13T15:57:15.511Z,1009.0
2018-11-13T16:00:15.731Z,1009.1
2018-11-13T16:03:15.366Z,1009.1
2018-11-13T16:06:15.870Z,1009.2
2018-11-13T16:09:15.817Z,1009.2
2018-11-13T16:12:15.017Z,1009.3
2018-11-13T16:15:15.679Z,1009.3
2018-11-13T16:18:15.475Z,1009.3
2018-11-13T16:21:15.590Z,1009.3
2018-11-13T16:24:15.956Z,1009.4
2018-11-13T16:27:15.205Z,1009.4
2018-11-13T16:30:15.099Z,1009.4
2018-11-13T16:33:15.353Z,1009.4
2018-11-13T16:36:15.527Z,1009.5
2018-11-13T16:39:15.424Z,1009.5
2018-11-13T16:42:15.800Z,1009.6
2018-11-13T16:45:15.180Z,1009.6
2018-11-13T16:48:15.200Z,1009.6
2018-11-13T16:51:15.467Z,1009.6
2018-11-13T16:54:15.469Z,1009.7
2018-11-13T16:57:15.664Z,1009.7
2018-11-13T17:00:15.810Z,1009.7
2018-11-13T17:03:15.867Z,1009.7
2018-11-13T17:06:15.322Z,1009.8
2018-11-13T17:09:15.180Z,1009.9
2018-11-13T17:12:15.518Z,1009.9
2018-11-13T17:15:15.772Z,1010.0
2018-11-13T17:18:15.514Z,1010.0
2018-11-13T17:21:15.854Z,1010.0
2018-11-13T17:24:15.993Z,1010.0
2018-11-13T17:27:15.540Z,1010.0
2018-11-13T17:30:15.104Z,1009.9
2018-11-13T17:33:15.092Z,1010.0
2018-11-13T17:36:15.149Z,1010.0
2018-11-13T17:39:15.235Z,1010.0
2018-11-13T17:42:15.809Z,1010.1
2018-11-13T17:45:15.956Z,1010.2
2018-11-13T17:48:15.293Z,1010.2
2018-11-13T17:51:15.222Z,1010.3
2018-11-13T17:54:15.494Z,1010.3
2018-11-13T17:57:15.282Z,1010.3
2018-11-13T18:00:15.362Z,1010.3
2018-11-13T18:03:15.080Z,1010.4
2018-11-13T18:06:15.304Z,1010.4
2018-11-13T18:09:15.566Z,1010.4
2018-11-13T18:12:15.904Z,1010.4
2018-11-13T18:15:15.146Z,1010.4
2018-11-13T18:18:16.281Z,1010.5
2018-11-13T18:21:15.314Z,1010.5
2018-11-13T18:24:15.666Z,1010.6
2018-11-13T18:27:15.852Z,1010.6
2018-11-13T18:30:15.935Z,1010.6
2018-11-13T18:33:15.369Z,1010.6
2018-11-13T18:36:15.385Z,1010.6
2018-11-13T18:39:15.560Z,1010.6
2018-11-13T18:42:15.707Z,1010.6
2018-11-13T18:45:15.759Z,1010.6
2018-11-13T18:48:15.034Z,1010.6
2018-11-13T18:51:15.245Z,1010.6
2018-11-13T18:54:15.548Z,1010.6
2018-11-13T18:57:15.585Z,1010.6
2018-11-13T19:00:15.743Z,1010.6
2018-11-13T19:03:15.579Z,1010.7
2018-11-13T19:06:15.630Z,1010.7
2018-11-13T19:09:15.752Z,1010.7
2018-11-13T19:12:15.926Z,1010.7
2018-11-13T19:15:15.656Z,1010.7
2018-11-13T19:18:15.358Z,1010.7
2018-11-13T19:21:15.077Z,1010.8
2018-11-13T19:24:15.452Z,1010.8
2018-11-13T19:27:15.885Z,1010.8
2018-11-13T19:30:15.396Z,1010.8
2018-11-13T19:33:15.692Z,1010.9
2018-11-13T19:36:16.235Z,1010.9
2018-11-13T19:39:16.056Z,1010.9
2018-11-13T19:42:15.298Z,1011.0
2018-11-13T19:45:15.722Z,1010.9
2018-11-13T19:48:15.950Z,1011.0
2018-11-13T19:51:15.460Z,1011.0
2018-11-13T19:54:15.170Z,1011.0
2018-11-13T19:57:15.271Z,1011.1
2018-11-13T20:00:15.055Z,1011.1
2018-11-13T20:03:15.414Z,1011.2
2018-11-13T20:06:15.805Z,1011.2
2018-11-13T20:09:14.886Z,1011.1
2018-11-13T20:12:15.118Z,1011.1
2018-11-13T20:15:15.199Z,1011.1
2018-11-13T20:18:15.583Z,1011.1
2018-11-13T20:21:16.018Z,1011.2
2018-11-13T20:24:15.936Z,1011.3
2018-11-13T20:27:15.773Z,1011.3
2018-11-13T20:30:15.639Z,1011.3
2018-11-13T20:33:15.094Z,1011.3
2018-11-13T20:36:15.533Z,1011.3
2018-11-13T20:39:15.934Z,1011.3
2018-11-13T20:42:15.101Z,1011.3
2018-11-13T20:45:15.463Z,1011.3
2018-11-13T20:48:15.758Z,1011.3
2018-11-13T20:51:15.702Z,1011.3
2018-11-13T20:54:15.422Z,1011.4
2018-11-13T20:57:15.571Z,1011.4
2018-11-13T21:00:15.880Z,1011.4
2018-11-13T21:03:15.285Z,1011.4
2018-11-13T21:06:15.422Z,1011.4
2018-11-13T21:09:15.637Z,1011.4
2018-11-13T21:12:14.985Z,1011.4
2018-11-13T21:15:15.077Z,1011.4
2018-11-13T21:18:15.145Z,1011.4
2018-11-13T21:21:15.255Z,1011.4
2018-11-13T21:24:15.486Z,1011.4
2018-11-13T21:27:15.725Z,1011.4
2018-11-13T21:30:15.227Z,1011.4
2018-11-13T21:33:15.447Z,1011.4
2018-11-13T21:36:15.619Z,1011.4
2018-11-13T21:39:15.436Z,1011.3
2018-11-13T21:42:15.457Z,1011.4
2018-11-13T21:45:15.774Z,1011.4
2018-11-13T21:48:15.885Z,1011.4
2018-11-13T21:51:15.037Z,1011.5
2018-11-13T21:54:15.187Z,1011.5
2018-11-13T21:57:20.238Z,1011.5
2018-11-13T22:00:15.345Z,1011.5
2018-11-13T22:03:15.839Z,1011.5
2018-11-13T22:06:15.926Z,1011.5
2018-11-13T22:09:15.366Z,1011.5
2018-11-13T22:12:15.672Z,1011.5
2018-11-13T22:15:15.196Z,1011.5
2018-11-13T22:18:15.813Z,1011.6
2018-11-13T22:21:15.880Z,1011.6
2018-11-13T22:24:15.763Z,1011.6
2018-11-13T22:27:16.017Z,1011.6
2018-11-13T22:30:15.555Z,1011.6
2018-11-13T22:33:14.981Z,1011.6
2018-11-13T22:36:14.882Z,1011.6
2018-11-13T22:39:15.956Z,1011.6
2018-11-13T22:42:15.798Z,1011.6
2018-11-13T22:45:15.966Z,1011.6
2018-11-13T22:48:15.032Z,1011.7
2018-11-13T22:51:15.100Z,1011.7
2018-11-13T22:54:15.027Z,1011.6
2018-11-13T22:57:15.981Z,1011.7
2018-11-13T23:00:15.280Z,1011.6
2018-11-13T23:03:15.192Z,1011.6
2018-11-13T23:06:14.998Z,1011.7
2018-11-13T23:09:15.202Z,1011.7
2018-11-13T23:12:15.185Z,1011.7
2018-11-13T23:15:15.176Z,1011.7
2018-11-13T23:18:15.376Z,1011.7
2018-11-13T23:21:15.397Z,1011.6
2018-11-13T23:24:15.291Z,1011.6
2018-11-13T23:27:15.387Z,1011.6
2018-11-13T23:30:15.471Z,1011.6
2018-11-13T23:33:15.053Z,1011.6
2018-11-13T23:36:15.301Z,1011.6
2018-11-13T23:39:15.293Z,1011.6
2018-11-13T23:42:15.115Z,1011.6
2018-11-13T23:45:15.095Z,1011.6
2018-11-13T23:48:15.132Z,1011.7
2018-11-13T23:51:15.402Z,1011.6
2018-11-13T23:54:15.587Z,1011.6
2018-11-13T23:57:15.515Z,1011.7
